Time;durP1;ratioP1;P1;durP2;ratioP2;P2;SDS_P1;SDS_P2;PMS_P1;PMS_P2;Temp;Humidity;BMP_temperature;BMP_pressure;BME280_temperature;BME280_humidity;BME280_pressure;Samples;Min_cycle;Max_cycle;Signal;HPM_P1;HPM_P2
2021/09/18 00:00:49;;;;;;;3.43;2.80;;;;;;;12.44;100.00;100645.91;5116257;28;20242;-75
2021/09/18 00:03:15;;;;;;;3.17;2.77;;;;;;;12.46;100.00;100644.00;5117371;28;20180;-74
2021/09/18 00:05:40;;;;;;;3.33;3.03;;;;;;;12.45;100.00;100636.91;5115946;28;20686;-75
2021/09/18 00:08:05;;;;;;;4.00;3.27;;;;;;;12.35;100.00;100646.50;5114636;28;20174;-75
2021/09/18 00:10:31;;;;;;;4.57;3.60;;;;;;;12.27;100.00;100652.34;5114365;28;20173;-74
2021/09/18 00:12:56;;;;;;;5.47;3.87;;;;;;;12.14;100.00;100665.59;5115791;28;20208;-75
2021/09/18 00:15:21;;;;;;;10.27;4.20;;;;;;;12.13;100.00;100681.75;5115872;28;20239;-74
2021/09/18 00:17:47;;;;;;;5.07;4.67;;;;;;;12.09;100.00;100710.50;5116027;28;20197;-75
2021/09/18 00:20:12;;;;;;;4.63;4.23;;;;;;;12.03;100.00;100710.88;5115555;28;20173;-76
2021/09/18 00:22:37;;;;;;;7.30;4.33;;;;;;;11.94;100.00;100734.66;5115803;28;20181;-74
2021/09/18 00:25:03;;;;;;;4.90;4.50;;;;;;;11.92;100.00;100750.81;5097510;28;20197;-75
2021/09/18 00:27:28;;;;;;;10.23;4.57;;;;;;;11.95;100.00;100765.81;5116161;28;20181;-75
2021/09/18 00:29:54;;;;;;;6.87;4.60;;;;;;;11.95;100.00;100780.03;5119568;28;20246;-75
2021/09/18 00:32:19;;;;;;;5.37;4.87;;;;;;;11.91;100.00;100797.22;5102462;28;20174;-74
2021/09/18 00:34:44;;;;;;;5.47;4.93;;;;;;;11.92;100.00;100790.91;5114917;28;20276;-74
2021/09/18 00:37:10;;;;;;;8.07;5.00;;;;;;;11.95;100.00;100803.25;5115134;28;20177;-75
2021/09/18 00:39:35;;;;;;;8.97;5.40;;;;;;;11.98;100.00;100801.25;5115330;27;20180;-74
2021/09/18 00:42:00;;;;;;;6.17;5.60;;;;;;;11.93;100.00;100815.84;5115047;28;20195;-75
2021/09/18 00:44:27;;;;;;;7.43;5.03;;;;;;;11.94;100.00;100818.44;5114244;28;20185;-75
2021/09/18 00:46:52;;;;;;;5.97;5.37;;;;;;;11.87;100.00;100827.75;5115013;28;20166;-75
2021/09/18 00:49:18;;;;;;;7.00;5.60;;;;;;;11.86;100.00;100832.22;5114751;27;20199;-77
2021/09/18 00:51:43;;;;;;;8.77;5.67;;;;;;;11.86;100.00;100840.25;5113872;28;20173;-76
2021/09/18 00:54:11;;;;;;;6.50;5.80;;;;;;;11.93;100.00;100851.47;5113463;28;20207;-75
2021/09/18 00:56:36;;;;;;;7.53;6.20;;;;;;;11.87;100.00;100858.03;5112912;28;20173;-76
2021/09/18 00:59:02;;;;;;;13.87;6.00;;;;;;;11.84;100.00;100854.66;5114252;28;20169;-75
2021/09/18 01:01:27;;;;;;;6.13;5.50;;;;;;;11.84;100.00;100865.38;5096177;28;20188;-74
2021/09/18 01:03:53;;;;;;;5.57;4.97;;;;;;;11.89;100.00;100868.63;5113014;28;20658;-74
2021/09/18 01:06:18;;;;;;;6.10;5.33;;;;;;;11.87;100.00;100874.06;5113202;28;20220;-74
2021/09/18 01:08:48;;;;;;;8.17;5.60;;;;;;;11.88;100.00;100875.78;5112652;28;20217;-75
2021/09/18 01:11:13;;;;;;;6.40;5.63;;;;;;;11.92;100.00;100881.00;5113138;28;20165;-73
2021/09/18 01:13:39;;;;;;;5.80;5.30;;;;;;;11.93;100.00;100896.94;5112932;28;20677;-73
2021/09/18 01:16:04;;;;;;;5.70;5.20;;;;;;;11.95;100.00;100889.69;5113981;28;20189;-73
2021/09/18 01:18:29;;;;;;;6.43;5.10;;;;;;;11.96;100.00;100896.78;5112857;28;20173;-73
2021/09/18 01:20:55;;;;;;;6.07;4.90;;;;;;;12.01;100.00;100901.84;5113379;28;20170;-74
2021/09/18 01:23:23;;;;;;;5.97;5.00;;;;;;;12.02;100.00;100899.09;5113020;28;20623;-74
2021/09/18 01:25:49;;;;;;;5.87;5.03;;;;;;;12.00;100.00;100892.97;5112831;28;20185;-73
2021/09/18 01:28:15;;;;;;;5.57;5.00;;;;;;;12.02;100.00;100896.41;5114106;28;20177;-73
2021/09/18 01:30:40;;;;;;;6.30;5.70;;;;;;;12.03;100.00;100892.78;5112627;28;20201;-74
2021/09/18 01:33:07;;;;;;;5.60;5.10;;;;;;;12.06;100.00;100897.97;5113042;28;20555;-74
2021/09/18 01:35:32;;;;;;;5.60;5.10;;;;;;;12.05;100.00;100900.72;5113650;28;20280;-74
2021/09/18 01:37:58;;;;;;;5.33;4.70;;;;;;;12.08;100.00;100895.19;5113021;28;20699;-73
2021/09/18 01:40:26;;;;;;;4.63;4.27;;;;;;;12.09;100.00;100897.78;5113778;28;20182;-74
2021/09/18 01:42:52;;;;;;;4.63;4.23;;;;;;;12.19;100.00;100900.78;5113739;28;20182;-73
2021/09/18 01:45:18;;;;;;;10.13;5.47;;;;;;;12.13;100.00;100902.00;5112629;28;20189;-73
2021/09/18 01:47:46;;;;;;;7.87;5.03;;;;;;;12.12;100.00;100896.72;5112638;28;20176;-73
2021/09/18 01:50:48;;;;;;;6.30;4.43;;;;;;;12.15;100.00;100904.56;5112361;28;20176;-74
2021/09/18 01:53:15;;;;;;;5.40;4.63;;;;;;;12.17;100.00;100905.34;5113371;28;20220;-74
2021/09/18 01:55:42;;;;;;;6.17;4.90;;;;;;;12.19;100.00;100904.31;5112317;28;20212;-74
2021/09/18 01:58:08;;;;;;;9.20;5.60;;;;;;;12.26;100.00;100906.63;5112018;28;20212;-73
2021/09/18 02:00:39;;;;;;;7.90;5.60;;;;;;;12.30;100.00;100914.41;5112316;28;20201;-74
2021/09/18 02:03:04;;;;;;;10.33;6.47;;;;;;;12.27;100.00;100906.56;5112125;28;20173;-74
2021/09/18 02:05:29;;;;;;;6.70;5.40;;;;;;;12.31;100.00;100909.91;5111928;28;20610;-74
2021/09/18 02:07:55;;;;;;;7.13;6.23;;;;;;;12.37;100.00;100906.88;5112042;28;20173;-74
2021/09/18 02:10:24;;;;;;;7.77;5.67;;;;;;;12.30;100.00;100909.06;5112031;28;20177;-74
2021/09/18 02:12:50;;;;;;;10.97;6.87;;;;;;;12.35;100.00;100914.13;5113219;28;20547;-74
2021/09/18 02:15:16;;;;;;;11.50;7.00;;;;;;;12.42;100.00;100920.84;5113530;28;20229;-74
2021/09/18 02:17:42;;;;;;;9.83;7.00;;;;;;;12.46;100.00;100919.69;5113237;28;20238;-74
2021/09/18 02:20:11;;;;;;;10.00;7.00;;;;;;;12.49;100.00;100924.88;5112302;28;20249;-75
2021/09/18 02:22:36;;;;;;;9.90;6.13;;;;;;;12.50;100.00;100938.16;5113753;28;20178;-75
2021/09/18 02:25:03;;;;;;;9.43;6.97;;;;;;;12.52;100.00;100946.97;5112216;28;20192;-74
2021/09/18 02:27:28;;;;;;;11.80;7.30;;;;;;;12.53;100.00;100951.38;5113265;28;20697;-74
2021/09/18 02:29:54;;;;;;;7.97;5.93;;;;;;;12.54;100.00;100946.88;5113231;28;20224;-74
2021/09/18 02:32:19;;;;;;;13.17;7.37;;;;;;;12.56;100.00;100949.47;5111623;28;20201;-74
2021/09/18 02:34:44;;;;;;;11.60;6.70;;;;;;;12.65;100.00;100948.94;5111549;28;20209;-74
2021/09/18 02:37:09;;;;;;;15.73;7.30;;;;;;;12.67;100.00;100960.41;5111768;28;20176;-73
2021/09/18 02:39:35;;;;;;;12.57;6.80;;;;;;;12.70;100.00;100952.19;5112822;28;20201;-74
2021/09/18 02:42:00;;;;;;;10.63;6.03;;;;;;;12.72;100.00;100967.22;5112957;28;20265;-74
2021/09/18 02:44:25;;;;;;;15.13;7.03;;;;;;;12.79;100.00;100973.06;5111710;28;20278;-73
2021/09/18 02:46:51;;;;;;;14.37;7.20;;;;;;;12.78;100.00;100961.50;5111976;28;20223;-74
2021/09/18 02:49:16;;;;;;;8.80;6.07;;;;;;;12.82;100.00;100967.53;5093630;22;20292;-68
2021/09/18 02:51:42;;;;;;;15.90;7.00;;;;;;;12.83;100.00;100970.09;5051986;28;20184;-69
2021/09/18 02:54:07;;;;;;;11.23;5.50;;;;;;;12.88;100.00;100971.66;5053000;28;20199;-68
2021/09/18 02:56:32;;;;;;;11.90;6.40;;;;;;;12.90;100.00;100977.78;5052910;28;20519;-69
2021/09/18 02:58:57;;;;;;;11.47;6.10;;;;;;;12.96;100.00;100980.06;5052255;28;20242;-67
2021/09/18 03:01:23;;;;;;;9.03;5.20;;;;;;;13.04;100.00;100977.81;5051137;28;20175;-67
2021/09/18 03:03:48;;;;;;;9.60;5.30;;;;;;;13.09;100.00;100981.06;5052955;28;20172;-67
2021/09/18 03:06:13;;;;;;;12.37;4.87;;;;;;;13.09;100.00;100984.63;5052572;28;20202;-67
2021/09/18 03:08:39;;;;;;;9.57;5.40;;;;;;;13.11;100.00;100985.38;5052733;28;20286;-67
2021/09/18 03:11:05;;;;;;;9.10;4.53;;;;;;;13.14;100.00;100985.19;5051644;28;20214;-67
2021/09/18 03:13:30;;;;;;;12.30;4.83;;;;;;;13.18;100.00;100985.03;5052673;28;20202;-67
2021/09/18 03:15:56;;;;;;;11.73;5.80;;;;;;;13.21;100.00;100990.22;5052595;28;20183;-68
2021/09/18 03:18:21;;;;;;;9.43;5.20;;;;;;;13.21;100.00;100993.75;5051374;28;20195;-68
2021/09/18 03:20:46;;;;;;;11.03;5.47;;;;;;;13.23;100.00;101002.56;5052216;28;20182;-68
2021/09/18 03:23:13;;;;;;;14.23;5.60;;;;;;;13.24;100.00;101000.75;5051218;28;20203;-68
2021/09/18 03:25:40;;;;;;;10.00;4.83;;;;;;;13.25;100.00;101002.47;5052224;28;20646;-68
2021/09/18 03:28:05;;;;;;;7.73;4.53;;;;;;;13.24;100.00;101004.28;5052301;28;20204;-68
2021/09/18 03:30:30;;;;;;;10.33;5.10;;;;;;;13.26;100.00;101005.03;5051361;28;20186;-68
2021/09/18 03:32:55;;;;;;;10.30;4.50;;;;;;;13.28;100.00;101008.50;5055906;28;20190;-68
2021/09/18 03:35:21;;;;;;;10.10;4.80;;;;;;;13.28;100.00;101005.81;5055798;28;20186;-68
2021/09/18 03:37:46;;;;;;;7.13;4.20;;;;;;;13.35;100.00;101008.97;5056036;28;20595;-68
2021/09/18 03:40:12;;;;;;;9.53;4.10;;;;;;;13.29;100.00;101007.53;5055627;28;20179;-68
2021/09/18 03:42:38;;;;;;;16.77;4.90;;;;;;;13.28;100.00;101007.63;5055610;28;20190;-68
2021/09/18 03:45:04;;;;;;;8.17;4.87;;;;;;;13.28;100.00;101008.50;5070934;28;20167;-68
2021/09/18 03:47:29;;;;;;;10.03;4.53;;;;;;;13.27;100.00;101009.44;5054184;28;20183;-68
2021/09/18 03:49:55;;;;;;;10.03;4.50;;;;;;;13.26;100.00;101018.44;5055388;28;20214;-68
2021/09/18 03:52:20;;;;;;;8.00;4.53;;;;;;;13.26;100.00;101020.28;5054311;28;20172;-68
2021/09/18 03:54:46;;;;;;;11.33;4.70;;;;;;;13.27;100.00;101019.31;5054244;28;20234;-68
2021/09/18 03:57:11;;;;;;;9.20;4.07;;;;;;;13.27;100.00;101028.22;5055309;28;20183;-68
2021/09/18 03:59:36;;;;;;;8.97;3.80;;;;;;;13.31;100.00;101037.78;5054069;28;20211;-68
2021/09/18 04:02:02;;;;;;;5.37;2.90;;;;;;;13.26;100.00;101034.53;5053937;28;20633;-68
2021/09/18 04:04:27;;;;;;;7.63;3.40;;;;;;;13.31;100.00;101044.97;5053821;28;20195;-68
2021/09/18 04:06:53;;;;;;;7.27;3.00;;;;;;;13.29;100.00;101046.88;5055830;28;20241;-68
2021/09/18 04:09:18;;;;;;;6.07;2.43;;;;;;;13.31;100.00;101044.97;5070466;28;20572;-68
2021/09/18 04:11:43;;;;;;;6.13;2.60;;;;;;;13.32;100.00;101039.50;5054912;28;20183;-68
2021/09/18 04:14:08;;;;;;;8.83;2.27;;;;;;;13.28;100.00;101046.03;5070104;28;20200;-69
2021/09/18 04:16:34;;;;;;;12.70;2.63;;;;;;;13.30;100.00;101044.09;5054816;28;20224;-68
2021/09/18 04:18:59;;;;;;;6.17;1.77;;;;;;;13.31;100.00;101040.47;5053750;28;20577;-68
2021/09/18 04:21:24;;;;;;;4.17;1.93;;;;;;;13.27;100.00;101044.28;5054692;28;20176;-68
2021/09/18 04:23:50;;;;;;;6.00;2.20;;;;;;;13.28;100.00;101046.03;5053473;28;20172;-68
2021/09/18 04:26:15;;;;;;;6.70;2.40;;;;;;;13.27;100.00;101046.97;5070233;28;20229;-68
2021/09/18 04:28:40;;;;;;;4.07;1.90;;;;;;;13.27;100.00;101046.97;5036967;28;20208;-69
2021/09/18 04:31:06;;;;;;;4.00;2.53;;;;;;;13.27;100.00;101046.97;5054622;28;20191;-68
2021/09/18 04:33:31;;;;;;;5.23;1.77;;;;;;;13.27;100.00;101055.03;5054624;28;20278;-68
2021/09/18 04:35:57;;;;;;;8.40;2.30;;;;;;;13.27;100.00;101054.16;5053643;28;20179;-68
2021/09/18 04:38:22;;;;;;;6.00;1.97;;;;;;;13.23;100.00;101053.47;5054497;28;20192;-68
2021/09/18 04:40:47;;;;;;;8.10;2.30;;;;;;;13.21;100.00;101054.53;5054811;28;20186;-68
2021/09/18 04:43:13;;;;;;;7.07;2.57;;;;;;;13.14;100.00;101051.34;5054645;28;20225;-68
2021/09/18 04:45:38;;;;;;;4.37;1.70;;;;;;;13.17;100.00;101053.84;5055273;28;20172;-68
2021/09/18 04:48:03;;;;;;;4.33;1.80;;;;;;;13.14;100.00;101054.00;5054761;28;20241;-68
2021/09/18 04:50:29;;;;;;;9.43;2.20;;;;;;;13.15;100.00;101061.09;5055007;28;20640;-69
2021/09/18 04:52:54;;;;;;;8.17;1.80;;;;;;;13.16;100.00;101057.47;5053083;28;20656;-68
2021/09/18 04:55:19;;;;;;;6.10;1.40;;;;;;;13.13;100.00;101061.19;5055048;28;20294;-68
2021/09/18 04:57:44;;;;;;;5.23;1.40;;;;;;;13.10;100.00;101057.84;5054267;28;20180;-69
2021/09/18 05:00:10;;;;;;;7.20;1.70;;;;;;;13.08;100.00;101055.25;5054457;28;20625;-69
2021/09/18 05:02:35;;;;;;;6.80;1.53;;;;;;;13.07;100.00;101055.34;5054375;28;20183;-67
2021/09/18 05:05:01;;;;;;;9.10;2.00;;;;;;;13.07;100.00;101053.53;5054262;28;20214;-68
2021/09/18 05:07:26;;;;;;;5.03;1.40;;;;;;;13.04;100.00;101060.88;5054021;28;20179;-68
2021/09/18 05:09:51;;;;;;;2.97;1.17;;;;;;;13.04;100.00;101055.53;5052683;28;20213;-68
2021/09/18 05:12:16;;;;;;;3.07;1.10;;;;;;;13.04;100.00;101058.19;5054077;28;20176;-68
2021/09/18 05:14:42;;;;;;;3.00;1.03;;;;;;;13.01;100.00;101063.75;5054220;28;20199;-68
2021/09/18 05:17:07;;;;;;;7.27;1.10;;;;;;;13.03;100.00;101061.84;5053017;28;20194;-69
2021/09/18 05:19:32;;;;;;;7.40;1.20;;;;;;;13.01;100.00;101056.56;5053875;28;20191;-69
2021/09/18 05:21:58;;;;;;;4.63;1.53;;;;;;;12.97;100.00;101062.16;5054326;28;20180;-68
2021/09/18 05:24:25;;;;;;;6.37;1.27;;;;;;;12.98;100.00;101064.75;5052814;28;20198;-68
2021/09/18 05:26:50;;;;;;;4.33;1.40;;;;;;;12.98;100.00;101064.75;5053906;28;20233;-69
2021/09/18 05:29:15;;;;;;;12.50;1.87;;;;;;;12.98;100.00;101066.56;5052496;28;20198;-68
2021/09/18 05:31:41;;;;;;;6.37;1.37;;;;;;;12.93;100.00;101066.84;5053991;28;20195;-68
2021/09/18 05:34:06;;;;;;;2.90;1.23;;;;;;;12.96;100.00;101065.81;5069150;28;20207;-69
2021/09/18 05:36:31;;;;;;;5.50;1.60;;;;;;;12.99;100.00;101068.31;5053793;28;20190;-67
2021/09/18 05:38:57;;;;;;;5.47;1.50;;;;;;;12.94;100.00;101071.25;5052387;28;20202;-67
2021/09/18 05:41:22;;;;;;;5.03;1.27;;;;;;;12.94;100.00;101063.22;5052775;28;20175;-67
2021/09/18 05:43:47;;;;;;;5.13;1.17;;;;;;;12.95;100.00;101070.31;5052229;28;20282;-67
2021/09/18 05:46:12;;;;;;;5.97;1.07;;;;;;;12.92;100.00;101069.63;5054020;28;20176;-67
2021/09/18 05:48:38;;;;;;;7.93;1.20;;;;;;;12.98;100.00;101070.13;5053392;28;20688;-67
2021/09/18 05:51:03;;;;;;;6.17;1.03;;;;;;;12.98;100.00;101064.75;5053384;28;20683;-68
2021/09/18 05:53:28;;;;;;;5.30;0.90;;;;;;;12.90;100.00;101067.03;5053240;28;20203;-69
2021/09/18 05:55:54;;;;;;;3.27;1.20;;;;;;;12.95;100.00;101062.25;5052113;28;20652;-69
2021/09/18 05:58:19;;;;;;;5.73;1.40;;;;;;;12.96;100.00;101060.44;5053722;28;20202;-68
2021/09/18 06:00:45;;;;;;;6.20;1.20;;;;;;;13.00;100.00;101076.25;5052295;28;20183;-69
2021/09/18 06:03:10;;;;;;;1.57;0.80;;;;;;;12.93;100.00;101060.63;5053850;28;20204;-69
2021/09/18 06:05:36;;;;;;;3.80;1.00;;;;;;;12.92;100.00;101065.13;5053888;28;20182;-69
2021/09/18 06:08:01;;;;;;;3.70;1.20;;;;;;;12.92;100.00;101056.22;5053415;28;20199;-69
2021/09/18 06:10:26;;;;;;;3.63;1.07;;;;;;;12.99;100.00;101065.63;5053939;28;20175;-68
2021/09/18 06:12:51;;;;;;;3.03;1.33;;;;;;;12.96;100.00;101061.31;5053698;28;20190;-68
2021/09/18 06:15:17;;;;;;;1.67;0.80;;;;;;;12.99;100.00;101061.13;5053316;28;20214;-69
2021/09/18 06:17:42;;;;;;;1.33;0.60;;;;;;;13.02;100.00;101060.97;5053318;28;20171;-68
2021/09/18 06:20:08;;;;;;;2.70;1.00;;;;;;;12.84;100.00;101056.69;5051907;28;20172;-68
2021/09/18 06:22:33;;;;;;;3.43;0.80;;;;;;;12.79;100.00;101043.56;5051509;28;20270;-68
2021/09/18 06:24:59;;;;;;;2.97;0.73;;;;;;;12.73;100.00;101035.03;5053277;28;20175;-68
2021/09/18 06:27:24;;;;;;;3.63;0.80;;;;;;;12.65;100.00;101038.16;5054299;28;20175;-68
2021/09/18 06:29:50;;;;;;;6.17;1.07;;;;;;;12.63;100.00;101034.69;5070137;28;20286;-68
2021/09/18 06:32:15;;;;;;;2.93;0.93;;;;;;;12.61;100.00;101033.06;5052303;28;20183;-65
2021/09/18 06:34:40;;;;;;;5.93;1.30;;;;;;;12.61;100.00;101044.63;5053120;28;20195;-66
2021/09/18 06:37:05;;;;;;;9.57;1.30;;;;;;;12.64;100.00;101048.97;5052995;28;20706;-66
2021/09/18 06:39:32;;;;;;;6.43;1.97;;;;;;;12.71;100.00;101051.19;5052767;28;20199;-65
2021/09/18 06:41:58;;;;;;;2.93;1.00;;;;;;;12.71;100.00;101056.56;5052849;28;20254;-64
2021/09/18 06:44:23;;;;;;;3.70;0.80;;;;;;;12.71;100.00;101056.56;5053218;28;20199;-66
2021/09/18 06:46:48;;;;;;;2.70;0.73;;;;;;;12.73;100.00;101069.84;5053123;28;20233;-65
2021/09/18 06:49:13;;;;;;;10.70;1.07;;;;;;;12.63;100.00;101058.78;5054452;28;20203;-65
2021/09/18 06:51:39;;;;;;;3.70;1.27;;;;;;;12.64;100.00;101057.88;5054097;28;20304;-64
2021/09/18 06:54:05;;;;;;;3.43;1.13;;;;;;;12.60;100.00;101053.59;5053949;28;20195;-65
2021/09/18 06:56:30;;;;;;;3.67;1.10;;;;;;;12.66;100.00;101065.81;5053147;28;20691;-65
2021/09/18 06:58:56;;;;;;;2.30;0.90;;;;;;;12.70;100.00;101064.69;5053538;28;20207;-64
2021/09/18 07:01:22;;;;;;;3.97;1.40;;;;;;;12.71;100.00;101067.25;5053016;28;20246;-64
2021/09/18 07:03:48;;;;;;;5.90;1.30;;;;;;;12.68;100.00;101067.44;5051950;28;20179;-64
2021/09/18 07:06:13;;;;;;;4.87;1.30;;;;;;;12.72;100.00;101073.47;5054337;28;20205;-63
2021/09/18 07:08:38;;;;;;;3.57;1.33;;;;;;;12.80;100.00;101069.41;5056621;28;20592;-64
2021/09/18 07:11:03;;;;;;;4.77;2.40;;;;;;;12.92;100.00;101077.66;5056553;28;20180;-68
2021/09/18 07:13:29;;;;;;;3.30;1.40;;;;;;;13.03;100.00;101073.41;5055742;28;20229;-68
2021/09/18 07:15:54;;;;;;;6.87;1.70;;;;;;;13.03;100.00;101064.53;5057286;28;20258;-68
2021/09/18 07:18:20;;;;;;;8.20;1.67;;;;;;;13.06;100.00;101059.84;5055926;28;20310;-69
2021/09/18 07:20:45;;;;;;;4.33;1.67;;;;;;;13.10;100.00;101063.19;5057486;28;20556;-68
2021/09/18 07:23:10;;;;;;;3.07;1.27;;;;;;;13.09;100.00;101050.75;5056290;28;20190;-69
2021/09/18 07:25:35;;;;;;;5.10;1.50;;;;;;;13.09;100.00;101053.44;5057856;28;20179;-69
2021/09/18 07:28:01;;;;;;;5.37;1.73;;;;;;;13.04;100.00;101052.84;5055320;28;20184;-70
2021/09/18 07:30:26;;;;;;;5.77;1.40;;;;;;;12.97;100.00;101038.91;5072034;28;20176;-69
2021/09/18 07:32:52;;;;;;;7.00;1.67;;;;;;;12.98;100.00;101054.03;5056380;28;20241;-69
2021/09/18 07:35:17;;;;;;;2.83;1.23;;;;;;;13.02;100.00;101049.41;5056279;28;20569;-69
2021/09/18 07:37:42;;;;;;;5.87;1.73;;;;;;;13.03;100.00;101040.41;5055849;28;20179;-68
2021/09/18 07:40:10;;;;;;;4.63;1.50;;;;;;;13.06;100.00;101042.91;5055947;28;20187;-68
2021/09/18 07:42:35;;;;;;;4.83;1.63;;;;;;;13.12;100.00;101034.47;5055919;28;20195;-69
2021/09/18 07:45:02;;;;;;;3.63;1.60;;;;;;;13.13;100.00;101031.72;5054598;28;20522;-68
2021/09/18 07:47:27;;;;;;;5.00;2.00;;;;;;;13.21;100.00;101025.06;5055667;28;20176;-69
2021/09/18 07:49:52;;;;;;;7.57;3.73;;;;;;;13.25;100.00;101016.72;5055361;28;20207;-68
2021/09/18 07:52:18;;;;;;;5.90;1.90;;;;;;;13.19;100.00;100998.34;5054893;28;20176;-68
2021/09/18 07:54:43;;;;;;;7.53;2.90;;;;;;;13.13;100.00;100986.16;5055458;28;20562;-69
2021/09/18 07:57:09;;;;;;;4.33;1.60;;;;;;;13.11;100.00;100995.25;5055485;28;20207;-68
2021/09/18 07:59:35;;;;;;;7.93;1.83;;;;;;;13.15;100.00;100996.78;5055778;28;20192;-69
2021/09/18 08:02:00;;;;;;;7.47;2.93;;;;;;;13.26;100.00;100982.75;5054151;28;20278;-69
2021/09/18 08:04:26;;;;;;;3.53;1.57;;;;;;;13.19;100.00;101001.03;5055386;28;20225;-68
2021/09/18 08:06:52;;;;;;;3.10;1.53;;;;;;;13.33;100.00;101000.16;5055032;28;20184;-68
2021/09/18 08:09:17;;;;;;;5.93;2.00;;;;;;;13.27;100.00;100997.88;5055698;28;20198;-69
2021/09/18 08:11:42;;;;;;;3.07;1.87;;;;;;;13.23;100.00;100997.19;5054953;28;20168;-69
2021/09/18 08:14:07;;;;;;;6.30;2.03;;;;;;;13.25;100.00;100989.91;5053998;28;20546;-69
2021/09/18 08:16:33;;;;;;;5.57;2.50;;;;;;;13.19;100.00;100987.63;5055047;28;20238;-69
2021/09/18 08:18:58;;;;;;;3.10;1.37;;;;;;;13.28;100.00;100981.69;5053804;28;20711;-68
2021/09/18 08:21:24;;;;;;;5.00;2.10;;;;;;;13.34;100.00;100981.31;5054970;28;20237;-68
2021/09/18 08:23:49;;;;;;;3.03;1.57;;;;;;;13.40;100.00;100974.72;5054762;28;20214;-67
2021/09/18 08:26:14;;;;;;;3.90;1.80;;;;;;;13.52;100.00;100970.41;5054825;28;20183;-69
2021/09/18 08:28:39;;;;;;;5.87;1.47;;;;;;;13.58;100.00;100952.09;5053871;28;20204;-68
2021/09/18 08:31:05;;;;;;;6.03;2.17;;;;;;;13.67;100.00;100958.69;5054842;28;20186;-68
2021/09/18 08:33:31;;;;;;;7.37;2.37;;;;;;;13.70;100.00;100950.44;5054787;28;20681;-68
2021/09/18 08:35:56;;;;;;;5.80;2.67;;;;;;;13.84;100.00;100963.88;5054753;28;20178;-68
2021/09/18 08:38:23;;;;;;;5.47;1.90;;;;;;;13.88;100.00;100960.00;5053443;28;20208;-68
2021/09/18 08:40:50;;;;;;;3.83;1.97;;;;;;;13.93;100.00;100967.75;5054782;28;20226;-68
2021/09/18 08:43:17;;;;;;;3.60;1.57;;;;;;;14.01;100.00;100960.94;5053718;28;20226;-69
2021/09/18 08:45:42;;;;;;;4.10;1.60;;;;;;;13.90;100.00;100958.09;5054639;28;20171;-68
2021/09/18 08:48:07;;;;;;;5.37;1.80;;;;;;;13.86;100.00;100967.31;5096615;23;20203;-75
2021/09/18 08:50:34;;;;;;;7.67;2.10;;;;;;;13.71;100.00;100962.91;5056010;28;20203;-74
2021/09/18 08:52:59;;;;;;;5.27;1.90;;;;;;;13.84;100.00;100965.69;5042178;28;20227;-75
2021/09/18 08:55:25;;;;;;;4.20;1.53;;;;;;;13.61;100.00;100967.13;5060511;28;20211;-74
2021/09/18 08:57:50;;;;;;;5.23;1.80;;;;;;;13.53;100.00;100973.00;5081061;28;20183;-75
2021/09/18 09:00:34;;;;;;;4.20;1.97;;;;;;;13.45;100.00;100978.84;5049589;28;20237;-75
2021/09/18 09:03:05;;;;;;;4.17;1.80;;;;;;;13.42;100.00;100989.75;5068727;28;20174;-74
2021/09/18 09:05:33;;;;;;;6.80;1.60;;;;;;;13.45;100.00;100989.56;5040451;28;20186;-75
2021/09/18 09:08:08;;;;;;;4.10;1.63;;;;;;;13.38;100.00;100995.38;5039190;28;20258;-74
2021/09/18 09:10:34;;;;;;;5.10;1.87;;;;;;;13.23;100.00;101004.38;5055298;28;20179;-75
2021/09/18 09:13:07;;;;;;;4.20;1.70;;;;;;;13.22;100.00;101021.41;5038157;28;20172;-75
2021/09/18 09:15:33;;;;;;;3.90;1.90;;;;;;;13.27;100.00;101022.84;5037610;28;20195;-75
2021/09/18 09:18:20;;;;;;;2.80;1.63;;;;;;;13.27;100.00;101028.22;5040382;28;20179;-74
2021/09/18 09:20:47;;;;;;;5.70;1.70;;;;;;;13.21;100.00;101041.13;5056931;28;20175;-74
2021/09/18 09:23:18;;;;;;;6.40;1.70;;;;;;;13.15;100.00;101039.66;5022240;28;20176;-76
2021/09/18 09:25:49;;;;;;;6.23;2.17;;;;;;;13.11;100.00;101047.03;5037683;28;20168;-75
2021/09/18 09:28:31;;;;;;;5.40;2.20;;;;;;;13.09;100.00;101040.03;5053375;28;20648;-76
2021/09/18 09:31:16;;;;;;;6.63;2.20;;;;;;;13.05;100.00;101051.88;5054754;28;20156;-76
2021/09/18 09:34:16;;;;;;;4.37;1.77;;;;;;;13.16;100.00;101046.75;5022300;28;20195;-74
2021/09/18 09:36:44;;;;;;;7.03;2.13;;;;;;;13.20;100.00;101040.28;5037148;28;20183;-75
2021/09/18 09:39:15;;;;;;;4.70;1.80;;;;;;;13.24;100.00;101044.47;5037228;28;20195;-75
2021/09/18 09:41:43;;;;;;;9.23;2.20;;;;;;;13.34;100.00;101044.78;5037583;28;20160;-75
2021/09/18 09:44:13;;;;;;;4.93;1.83;;;;;;;13.48;100.00;101041.28;5039848;28;20198;-75
2021/09/18 09:46:39;;;;;;;5.23;2.07;;;;;;;13.55;100.00;101031.88;5038011;28;20156;-76
2021/09/18 09:49:09;;;;;;;6.23;2.23;;;;;;;13.62;100.00;101022.50;5037764;28;20626;-75
2021/09/18 09:51:35;;;;;;;2.93;1.83;;;;;;;13.53;100.00;101017.72;5055694;28;20201;-75
2021/09/18 09:54:17;;;;;;;5.27;2.00;;;;;;;13.53;100.00;101020.41;5039173;28;20286;-76
2021/09/18 09:56:43;;;;;;;4.63;2.17;;;;;;;13.55;100.00;101027.38;5039951;28;20222;-75
2021/09/18 09:59:08;;;;;;;4.93;2.50;;;;;;;13.57;100.00;101029.97;5040734;28;20245;-73
2021/09/18 10:01:34;;;;;;;8.30;2.40;;;;;;;13.66;100.00;101032.94;5040140;28;20167;-74
2021/09/18 10:03:59;;;;;;;9.90;1.90;;;;;;;13.69;100.00;101030.06;5039031;28;20247;-74
2021/09/18 10:06:25;;;;;;;3.80;2.00;;;;;;;13.68;100.00;101022.97;5040037;28;20229;-75
2021/09/18 10:08:51;;;;;;;4.30;1.97;;;;;;;13.70;100.00;101020.19;5058327;28;20199;-74
2021/09/18 10:11:30;;;;;;;3.90;1.90;;;;;;;13.70;100.00;101015.69;5041576;28;20186;-74
2021/09/18 10:13:56;;;;;;;7.80;2.17;;;;;;;13.79;100.00;101022.31;5039503;28;20180;-74
2021/09/18 10:16:25;;;;;;;6.67;2.23;;;;;;;13.94;100.00;101023.16;5039460;28;20211;-73
2021/09/18 10:18:50;;;;;;;8.57;2.20;;;;;;;13.99;100.00;101021.91;5036317;28;20226;-75
2021/09/18 10:24:01;;;;;;;4.90;2.53;;;;;;;14.13;100.00;101002.25;5038368;28;20190;-66
2021/09/18 10:26:26;;;;;;;4.63;2.13;;;;;;;14.21;100.00;101004.41;5034767;28;20176;-67
2021/09/18 10:28:52;;;;;;;7.13;2.50;;;;;;;14.12;100.00;101005.00;5052852;28;20553;-70
2021/09/18 10:31:21;;;;;;;8.43;2.37;;;;;;;14.02;100.00;101010.97;5052941;28;20194;-69
2021/09/18 10:33:52;;;;;;;4.00;2.03;;;;;;;14.00;100.00;101010.19;5035561;28;20215;-70
2021/09/18 10:36:29;;;;;;;3.73;1.87;;;;;;;13.92;100.00;101011.66;5052988;28;20160;-69
2021/09/18 10:39:18;;;;;;;6.03;2.30;;;;;;;13.85;100.00;101019.25;5052930;28;20195;-69
2021/09/18 10:41:46;;;;;;;4.97;2.30;;;;;;;13.91;100.00;101024.22;5039773;28;20234;-69
2021/09/18 10:44:13;;;;;;;3.23;2.13;;;;;;;14.03;100.00;101028.78;5039566;28;20608;-69
2021/09/18 10:46:44;;;;;;;4.27;2.10;;;;;;;14.04;100.00;101014.41;5039123;28;20228;-69
2021/09/18 10:49:31;;;;;;;5.80;2.30;;;;;;;14.01;100.00;101013.75;5039395;28;20711;-69
2021/09/18 10:52:25;;;;;;;9.50;2.80;;;;;;;13.88;100.00;101019.03;5055491;28;20590;-69
2021/09/18 10:55:02;;;;;;;5.07;2.40;;;;;;;13.79;100.00;101030.38;5056911;28;20206;-70
2021/09/18 10:57:42;;;;;;;7.47;2.43;;;;;;;13.79;100.00;101035.72;5055210;28;20274;-70
2021/09/18 11:00:12;;;;;;;7.50;2.73;;;;;;;13.77;100.00;101027.78;5056400;28;20676;-68
2021/09/18 11:02:44;;;;;;;7.17;2.93;;;;;;;13.86;100.00;101029.00;5055584;28;20206;-68
2021/09/18 11:05:22;;;;;;;6.53;2.57;;;;;;;14.01;100.00;101029.84;5056725;28;20160;-69
2021/09/18 11:08:02;;;;;;;4.53;2.50;;;;;;;14.16;100.00;101025.34;5055143;28;20274;-69
2021/09/18 11:10:27;;;;;;;6.40;2.80;;;;;;;14.06;100.00;101019.66;5055203;28;20241;-68
2021/09/18 11:13:07;;;;;;;7.53;3.00;;;;;;;14.16;100.00;101028.88;5056329;28;20168;-70
2021/09/18 11:15:44;;;;;;;5.13;2.70;;;;;;;14.22;100.00;101022.25;5055844;28;20230;-69
2021/09/18 11:18:13;;;;;;;6.33;2.57;;;;;;;14.28;100.00;101017.34;5038338;28;20160;-68